Tiger Lily — 3EUW3 — position and weather

sailwx.info

Track history (hours):
 
Tides and Currents Weather Stations Pressure Air Temp Water Temp Dewpoint Dewpoint Depression Visibility Wind Speed Wind Dir Waves Ship Positions

Tiger Lily

Last reported at 2018-Jun-20 22:42 UTC. Time now 2018-Jun-21 23:53 UTC.
Position N 34°04' W 025°26'.

Length 229 m; draft 9.2 m.

Type: Cargo ship. MMSI: 372177000.

Date/timePositionNaut miles runAvg speedWind from/ knotsBaromVisibWave heightAir tempDewpointWater temp
2018-Jun-20 22:42N 34°04' W 025°26'4714.3
2018-Jun-20 19:24N 34°40' W 024°49'614.6
2018-Jun-20 19:00N 34°45' W 024°44'914.5
2018-Jun-20 18:23N 34°51' W 024°37'814.5
2018-Jun-20 17:49N 34°58' W 024°30'1114.2
2018-Jun-20 17:04N 35°06' W 024°22'114.6
2018-Jun-20 17:01N 35°06' W 024°21'714.3
2018-Jun-20 16:30N 35°12' W 024°15'714.5
2018-Jun-20 16:01N 35°17' W 024°09'714.3
2018-Jun-20 15:30N 35°22' W 024°04'714.7
2018-Jun-20 15:00N 35°28' W 023°57'714.8
2018-Jun-20 14:30N 35°33' W 023°51'714.7
2018-Jun-20 14:00N 35°39' W 023°45'714.4
2018-Jun-20 13:30N 35°44' W 023°39'814.7
2018-Jun-20 12:58N 35°50' W 023°33'814.6
2018-Jun-20 12:26N 35°56' W 023°27'614.5
2018-Jun-20 12:00N 36°00' W 023°21'714.8
2018-Jun-20 11:31N 36°06' W 023°15'714.9
2018-Jun-20 11:00N 36°12' W 023°09'1314.7
2018-Jun-20 10:07N 36°21' W 022°58'214.4
2018-Jun-20 09:59N 36°23' W 022°57'714.5
2018-Jun-20 09:30N 36°28' W 022°51'714.5
2018-Jun-20 09:00N 36°33' W 022°45'714.5
2018-Jun-20 08:31N 36°39' W 022°39'714.4
2018-Jun-20 08:00N 36°44' W 022°33'714.4
2018-Jun-20 07:29N 36°50' W 022°27'714.4
2018-Jun-20 07:00N 36°55' W 022°21'  
2018-Jun-17 11:48N 48°03' W 006°51'6012.7
2018-Jun-17 07:05N 48°49' W 005°52'211.2
2018-Jun-17 06:54N 48°50' W 005°51'410.8
2018-Jun-17 06:30N 48°54' W 005°47'6 9.9
2018-Jun-17 05:52N 48°57' W 005°39'1910.3
2018-Jun-17 04:02N 49°07' W 005°14'010.8
2018-Jun-17 04:00N 49°07' W 005°14'811.4
2018-Jun-17 03:19N 49°11' W 005°03'412.1
2018-Jun-17 02:58N 49°13' W 004°58'713.3
2018-Jun-17 02:28N 49°16' W 004°48'714.3
2018-Jun-17 02:00N 49°20' W 004°40'814.5
2018-Jun-17 01:29N 49°23' W 004°30'814.7
2018-Jun-17 00:55N 49°27' W 004°19'614.6
2018-Jun-17 00:30N 49°30' W 004°11'714.2
2018-Jun-17 00:00N 49°34' W 004°01'713.8
2018-Jun-16 23:30N 49°37' W 003°52'713.3
2018-Jun-16 23:00N 49°41' W 003°43'612.6
2018-Jun-16 22:29N 49°44' W 003°35'612.0
2018-Jun-16 22:00N 49°47' W 003°27'611.4
2018-Jun-16 21:30N 49°50' W 003°19'611.2
2018-Jun-16 21:00N 49°53' W 003°12'511.0
2018-Jun-16 20:30N 49°55' W 003°04'611.2
2018-Jun-16 20:00N 49°58' W 002°57'611.4
2018-Jun-16 19:30N 50°00' W 002°48'612.0
2018-Jun-16 19:00N 50°02' W 002°39'712.7
2018-Jun-16 18:30N 50°03' W 002°29'6415.8
2018-Jun-16 14:29N 50°20' W 000°54'714.6
2018-Jun-16 14:00N 50°21' W 000°43'1213.9
2018-Jun-16 13:10N 50°24' W 000°25'212.7
2018-Jun-16 13:00N 50°25' W 000°22'2 4.8
2018-Jun-16 12:30N 50°26' W 000°19'2 4.0
2018-Jun-16 12:00N 50°27' W 000°16'611.8
2018-Jun-16 11:29N 50°28' W 000°07'511.2
2018-Jun-16 11:00N 50°30' E 000°01'610.8
2018-Jun-16 10:26N 50°31' E 000°11'510.6
2018-Jun-16 10:00N 50°33' E 000°18'611.1
2018-Jun-16 09:30N 50°34' E 000°26'612.0
2018-Jun-16 09:00N 50°36' E 000°35'612.9
2018-Jun-16 08:30N 50°39' E 000°43'713.9
2018-Jun-16 08:00N 50°43' E 000°52'714.8
2018-Jun-16 07:30N 50°48' E 001°02'815.1
2018-Jun-16 07:00N 50°52' E 001°12'815.3
2018-Jun-16 06:30N 50°57' E 001°21'714.9
2018-Jun-16 06:00N 51°02' E 001°30'612.8
2018-Jun-16 05:31N 51°04' E 001°39'713.5
2018-Jun-16 05:01N 51°02' E 001°49'713.8
2018-Jun-16 04:30N 51°03' E 002°00'713.3
2018-Jun-16 04:00N 51°03' E 002°11'612.0
2018-Jun-16 03:29N 51°04' E 002°21'1 1.4
2018-Jun-16 03:00N 51°03' E 002°20'0 0.4
2018-Jun-16 02:30N 51°03' E 002°20'1 1.3
2018-Jun-16 02:00N 51°03' E 002°19'0 0.0
2018-Jun-16 00:54N 51°03' E 002°19'0 0.0
2018-Jun-16 00:21N 51°03' E 002°19'0 0.0
2018-Jun-16 00:00N 51°03' E 002°19'0 0.0
2018-Jun-15 23:09N 51°03' E 002°19'0 0.0
2018-Jun-15 22:57N 51°03' E 002°19'0 0.0
2018-Jun-15 22:30N 51°03' E 002°19'0 0.0
2018-Jun-15 22:00N 51°03' E 002°19'0 0.0
2018-Jun-15 21:30N 51°03' E 002°19'0 0.0
2018-Jun-15 21:00N 51°03' E 002°19'0 0.0
2018-Jun-15 20:30N 51°03' E 002°19'0 0.0
2018-Jun-15 20:00N 51°03' E 002°19'0 0.0
2018-Jun-15 19:30N 51°03' E 002°19'0 0.0
2018-Jun-15 19:00N 51°03' E 002°19'0 0.0
2018-Jun-15 18:30N 51°03' E 002°19'0 0.0
2018-Jun-15 18:00N 51°03' E 002°19'0 0.0
2018-Jun-15 17:30N 51°03' E 002°19'0 0.0
2018-Jun-15 17:00N 51°03' E 002°19'0 0.0
2018-Jun-15 16:30N 51°03' E 002°19'0 0.0
2018-Jun-15 16:00N 51°03' E 002°19'0 0.0
2018-Jun-15 15:30N 51°03' E 002°19'0 0.0
2018-Jun-15 15:00N 51°03' E 002°19'0 0.0
2018-Jun-15 14:30N 51°03' E 002°19'0 0.0
2018-Jun-15 14:00N 51°03' E 002°19'0 0.0
2018-Jun-15 13:30N 51°03' E 002°19'0 0.0
2018-Jun-15 13:00N 51°03' E 002°19'0 0.0
2018-Jun-15 12:30N 51°03' E 002°19'0 0.0
2018-Jun-15 12:00N 51°03' E 002°19'0 0.0
2018-Jun-15 11:30N 51°03' E 002°19'0 0.2
2018-Jun-15 11:00N 51°03' E 002°19'0 0.0
2018-Jun-15 10:30N 51°03' E 002°19'0 0.0
2018-Jun-15 10:00N 51°03' E 002°19'0 0.0
2018-Jun-15 09:30N 51°03' E 002°19'0 0.0
2018-Jun-15 09:00N 51°03' E 002°19'0 0.0
2018-Jun-15 08:30N 51°03' E 002°19'0 0.0
2018-Jun-15 08:00N 51°03' E 002°19'0 0.0
2018-Jun-15 07:30N 51°03' E 002°19'0 0.0
2018-Jun-15 07:00N 51°03' E 002°19'0 0.0
2018-Jun-15 06:30N 51°03' E 002°19'0 0.0
2018-Jun-15 06:00N 51°03' E 002°19'0 0.0
2018-Jun-15 05:30N 51°03' E 002°19'0 0.0
2018-Jun-15 05:00N 51°03' E 002°19'0 0.0
2018-Jun-15 04:30N 51°03' E 002°19'0 0.0
2018-Jun-15 04:00N 51°03' E 002°19'0 0.0
2018-Jun-15 03:30N 51°03' E 002°19'0 0.0
2018-Jun-15 03:00N 51°03' E 002°19'0 0.0
2018-Jun-15 02:30N 51°03' E 002°19'0 0.0
2018-Jun-15 02:00N 51°03' E 002°19'0 0.0
2018-Jun-15 01:30N 51°03' E 002°19'0 0.0
2018-Jun-15 01:00N 51°03' E 002°19'0 0.0
2018-Jun-15 00:30N 51°03' E 002°19'0 0.0
2018-Jun-15 00:00N 51°03' E 002°19'0 0.0
2018-Jun-14 23:30N 51°03' E 002°19'0 0.0
2018-Jun-14 23:00N 51°03' E 002°19'0 0.0
2018-Jun-14 22:30N 51°03' E 002°19'0 0.0
2018-Jun-14 21:57N 51°03' E 002°19'0 0.0
2018-Jun-14 21:30N 51°03' E 002°19'0 0.0
2018-Jun-14 20:54N 51°03' E 002°19'0 0.0
2018-Jun-14 20:27N 51°03' E 002°19'0 0.0
2018-Jun-14 20:00N 51°03' E 002°19'0 0.0
2018-Jun-14 19:30N 51°03' E 002°19'0 0.0
2018-Jun-14 19:00N 51°03' E 002°19'0 0.0
2018-Jun-14 18:27N 51°03' E 002°19'0 0.0
2018-Jun-14 18:00N 51°03' E 002°19'0 0.0
2018-Jun-14 17:30N 51°03' E 002°19'0 0.0
2018-Jun-14 16:57N 51°03' E 002°19'0 0.0
2018-Jun-14 16:24N 51°03' E 002°19'0 0.0
2018-Jun-14 16:00N 51°03' E 002°19'0 0.0
2018-Jun-14 15:27N 51°03' E 002°19'0 0.0
2018-Jun-14 15:00N 51°03' E 002°19'0 0.0
2018-Jun-14 14:30N 51°03' E 002°19'0 0.0
2018-Jun-14 12:36N 51°03' E 002°19'0 0.0
2018-Jun-14 12:27N 51°03' E 002°19'0 0.0
2018-Jun-14 10:54N 51°03' E 002°19'0 0.0
2018-Jun-14 10:30N 51°03' E 002°19'0 0.0
2018-Jun-14 10:00N 51°03' E 002°19'0 0.0
2018-Jun-14 09:30N 51°03' E 002°19'0 0.0
2018-Jun-14 09:00N 51°03' E 002°19'0 0.0
2018-Jun-14 08:30N 51°03' E 002°19'0 0.0
2018-Jun-14 08:00N 51°03' E 002°19'0 0.0
2018-Jun-14 07:30N 51°03' E 002°19'0 0.0
2018-Jun-14 06:48N 51°03' E 002°19'0 0.0
2018-Jun-14 06:30N 51°03' E 002°19'0 0.0
2018-Jun-14 06:00N 51°03' E 002°19'0 0.0
2018-Jun-14 05:30N 51°03' E 002°19'0 0.0
2018-Jun-14 05:00N 51°03' E 002°19'0 0.0
2018-Jun-14 04:30N 51°03' E 002°19'0 0.0
2018-Jun-14 04:00N 51°03' E 002°19'0 0.0
2018-Jun-14 03:30N 51°03' E 002°19'0 0.0
2018-Jun-14 03:00N 51°03' E 002°19'0 0.0
2018-Jun-14 02:30N 51°03' E 002°19'0 0.0
2018-Jun-14 02:00N 51°03' E 002°19'0 0.0
2018-Jun-14 01:30N 51°03' E 002°19'0 0.0
2018-Jun-14 01:00N 51°03' E 002°19'0 0.0
2018-Jun-14 00:30N 51°03' E 002°19'0 0.0
2018-Jun-14 00:00N 51°03' E 002°19'0 0.0
2018-Jun-13 23:30N 51°03' E 002°19'0 0.0
2018-Jun-13 23:00N 51°03' E 002°19'0 0.0
2018-Jun-13 22:30N 51°03' E 002°19'0 0.0
2018-Jun-13 22:00N 51°03' E 002°19'0 0.0
2018-Jun-13 21:30N 51°03' E 002°19'0 0.0
2018-Jun-13 21:00N 51°03' E 002°19'0 0.0
2018-Jun-13 20:30N 51°03' E 002°19'0 0.0
2018-Jun-13 20:00N 51°03' E 002°19'0 0.0
2018-Jun-13 19:30N 51°03' E 002°19'0 0.0
2018-Jun-13 19:00N 51°03' E 002°19'0 0.0
2018-Jun-13 18:30N 51°03' E 002°19'0 0.0
2018-Jun-13 18:00N 51°03' E 002°19'0 0.0
2018-Jun-13 17:30N 51°03' E 002°19'0 0.0
2018-Jun-13 16:57N 51°03' E 002°19'0 0.0
2018-Jun-13 16:30N 51°03' E 002°19'0 0.0
2018-Jun-13 16:00N 51°03' E 002°19'0 0.0
2018-Jun-13 15:30N 51°03' E 002°19'0 0.0
2018-Jun-13 15:00N 51°03' E 002°19'0 0.0
2018-Jun-13 14:30N 51°03' E 002°19'0 0.0
2018-Jun-13 14:00N 51°03' E 002°19'0 0.0
2018-Jun-13 13:30N 51°03' E 002°19'0 0.0
2018-Jun-13 13:00N 51°03' E 002°19'0 0.0
2018-Jun-13 12:30N 51°03' E 002°19'0 0.0
2018-Jun-13 12:00N 51°03' E 002°19'0 0.0
2018-Jun-13 11:30N 51°03' E 002°19'0 0.0
2018-Jun-13 11:00N 51°03' E 002°19'0 0.0
2018-Jun-13 10:30N 51°03' E 002°19'0 0.0
2018-Jun-13 10:00N 51°03' E 002°19'0 0.0
2018-Jun-13 09:30N 51°03' E 002°19'0 0.0
2018-Jun-13 08:54N 51°03' E 002°19'0 0.0
2018-Jun-13 08:30N 51°03' E 002°19'0 0.0
2018-Jun-13 08:00N 51°03' E 002°19'0 0.0
2018-Jun-13 07:30N 51°03' E 002°19'0 0.0
2018-Jun-13 07:00N 51°03' E 002°19'0 0.0
2018-Jun-13 06:27N 51°03' E 002°19'0 0.0
2018-Jun-13 06:00N 51°03' E 002°19'0 0.0
2018-Jun-13 05:30N 51°03' E 002°19'0 0.0
2018-Jun-13 04:54N 51°03' E 002°19'0 0.0
2018-Jun-13 04:24N 51°03' E 002°19'0 0.0
2018-Jun-13 04:00N 51°03' E 002°19'0 0.0
2018-Jun-13 03:18N 51°03' E 002°19'0 0.0
2018-Jun-13 03:00N 51°03' E 002°19'0 0.0
2018-Jun-13 02:06N 51°03' E 002°19'0 0.0
2018-Jun-13 01:54N 51°03' E 002°19'0 0.0
2018-Jun-13 01:30N 51°03' E 002°19'0 0.0
2018-Jun-13 00:54N 51°03' E 002°19'0 0.0
2018-Jun-13 00:30N 51°03' E 002°19'0 0.0
2018-Jun-13 00:00N 51°03' E 002°19'0 0.0
2018-Jun-12 23:30N 51°03' E 002°19'0 0.0
2018-Jun-12 22:33N 51°03' E 002°19'0 0.0
2018-Jun-12 22:09N 51°03' E 002°19'0 0.0
2018-Jun-12 22:00N 51°03' E 002°19'0 0.0
2018-Jun-12 20:48N 51°03' E 002°19'0 0.0
2018-Jun-12 20:21N 51°03' E 002°19'0 0.0
2018-Jun-12 19:39N 51°03' E 002°19'0 0.0
2018-Jun-12 19:24N 51°03' E 002°19'0 0.0
2018-Jun-12 18:48N 51°03' E 002°19'0 0.0
2018-Jun-12 18:30N 51°03' E 002°19'0 0.0
2018-Jun-12 17:54N 51°03' E 002°19'0 0.0
2018-Jun-12 17:24N 51°03' E 002°19'0 0.0
2018-Jun-12 16:27N 51°03' E 002°19'0 0.0
2018-Jun-12 14:45N 51°03' E 002°19'0 0.0
2018-Jun-12 14:15N 51°03' E 002°19'0 0.0
2018-Jun-12 13:48N 51°03' E 002°19'0 0.0
2018-Jun-12 10:27N 51°03' E 002°19'0 0.0
2018-Jun-12 10:00N 51°03' E 002°19'0 0.0
2018-Jun-12 09:27N 51°03' E 002°19'0 0.0
2018-Jun-12 08:57N 51°03' E 002°19'0 0.0
2018-Jun-12 08:27N 51°03' E 002°19'0 0.0
2018-Jun-12 08:00N 51°03' E 002°19'0 0.0
2018-Jun-12 07:30N 51°03' E 002°19'0 0.0
2018-Jun-12 07:00N 51°03' E 002°19'0 0.0
2018-Jun-12 06:30N 51°03' E 002°19'0 0.0
2018-Jun-12 06:00N 51°03' E 002°19'0 0.0
2018-Jun-12 05:15N 51°03' E 002°19'0 0.0
2018-Jun-12 05:00N 51°03' E 002°19'0 0.0
2018-Jun-12 04:30N 51°03' E 002°19'0 0.0
2018-Jun-12 04:00N 51°03' E 002°19'0 0.0
2018-Jun-12 03:21N 51°03' E 002°19'0 0.0
2018-Jun-12 03:00N 51°03' E 002°19'0 0.0
2018-Jun-12 02:30N 51°03' E 002°19'0 0.0
2018-Jun-12 02:00N 51°03' E 002°19'0 0.0
2018-Jun-12 01:30N 51°03' E 002°19'0 0.0
2018-Jun-12 00:51N 51°03' E 002°19'0 0.0
2018-Jun-12 00:27N 51°03' E 002°19'0 0.0
2018-Jun-12 00:00N 51°03' E 002°19'0 0.0
2018-Jun-11 23:30N 51°03' E 002°19'0 0.0
2018-Jun-11 23:00N 51°03' E 002°19'0 0.0
2018-Jun-11 22:30N 51°03' E 002°19'0 0.0
2018-Jun-11 22:00N 51°03' E 002°19'0 0.0
2018-Jun-11 21:27N 51°03' E 002°19'0 0.0
2018-Jun-11 21:00N 51°03' E 002°19'0 0.0
2018-Jun-11 20:30N 51°03' E 002°19'0 0.0
2018-Jun-11 20:00N 51°03' E 002°19'0 0.0
2018-Jun-11 19:30N 51°03' E 002°19'0 0.0
2018-Jun-11 19:00N 51°03' E 002°19'0 0.0
2018-Jun-11 18:30N 51°03' E 002°19'0 0.0
2018-Jun-11 18:00N 51°03' E 002°19'0 0.0
2018-Jun-11 17:30N 51°03' E 002°19'0 0.0
2018-Jun-11 17:00N 51°03' E 002°19'0 0.0
2018-Jun-11 16:30N 51°03' E 002°19'0 0.0
2018-Jun-11 15:57N 51°03' E 002°19'0 0.0
2018-Jun-11 15:30N 51°03' E 002°19'0 0.0
2018-Jun-11 15:00N 51°03' E 002°19'0 0.0
2018-Jun-11 14:30N 51°03' E 002°19'0 0.0
2018-Jun-11 14:00N 51°03' E 002°19'0 0.0
2018-Jun-11 13:30N 51°03' E 002°19'0 0.0
2018-Jun-11 13:00N 51°03' E 002°19'0 0.0
2018-Jun-11 12:27N 51°03' E 002°19'0 0.0
2018-Jun-11 12:00N 51°03' E 002°19'0 0.0
2018-Jun-11 11:30N 51°03' E 002°19'0 0.0
2018-Jun-11 11:00N 51°03' E 002°19'0 0.0
2018-Jun-11 10:21N 51°03' E 002°19'0 0.0
2018-Jun-11 10:00N 51°03' E 002°19'0 0.0
2018-Jun-11 09:30N 51°03' E 002°19'0 0.0
2018-Jun-11 09:00N 51°03' E 002°19'0 0.0
2018-Jun-11 08:30N 51°03' E 002°19'0 0.0
2018-Jun-11 08:00N 51°03' E 002°19'0 0.8
2018-Jun-11 07:30N 51°03' E 002°20'0 0.9
2018-Jun-11 07:00N 51°03' E 002°21'0 0.5
2018-Jun-11 06:29N 51°03' E 002°21'1 2.6
2018-Jun-11 06:00N 51°04' E 002°19'3 5.7
2018-Jun-11 05:30N 51°04' E 002°15'2 4.1
2018-Jun-11 04:59N 51°03' E 002°11'2 3.1
2018-Jun-11 04:30N 51°03' E 002°09'2 4.3
2018-Jun-11 04:00N 51°01' E 002°11'0 0.2
2018-Jun-11 03:27N 51°01' E 002°11'0 0.0
2018-Jun-11 02:27N 51°01' E 002°11'0 0.0
2018-Jun-11 01:51N 51°01' E 002°11'0 0.0
2018-Jun-11 00:12N 51°01' E 002°11'0 0.0
2018-Jun-10 22:45N 51°01' E 002°11'  
Track history (hours):
 
Tides and Currents Weather Stations Pressure Air Temp Water Temp Dewpoint Dewpoint Depression Visibility Wind Speed Wind Dir Waves Ship Positions

Tiger Lily

Last reported at 2018-Jun-20 22:42 UTC. Time now 2018-Jun-21 23:53 UTC.
Position N 34°04' W 025°26'.

Length 229 m; draft 9.2 m.

Type: Cargo ship. MMSI: 372177000.

Date/timePositionNaut miles runAvg speedWind from/ knotsBaromVisibWave heightAir tempDewpointWater temp
2018-Jun-20 22:42N 34°04' W 025°26'4714.3
2018-Jun-20 19:24N 34°40' W 024°49'614.6
2018-Jun-20 19:00N 34°45' W 024°44'914.5
2018-Jun-20 18:23N 34°51' W 024°37'814.5
2018-Jun-20 17:49N 34°58' W 024°30'1114.2
2018-Jun-20 17:04N 35°06' W 024°22'114.6
2018-Jun-20 17:01N 35°06' W 024°21'714.3
2018-Jun-20 16:30N 35°12' W 024°15'714.5
2018-Jun-20 16:01N 35°17' W 024°09'714.3
2018-Jun-20 15:30N 35°22' W 024°04'714.7
2018-Jun-20 15:00N 35°28' W 023°57'714.8
2018-Jun-20 14:30N 35°33' W 023°51'714.7
2018-Jun-20 14:00N 35°39' W 023°45'714.4
2018-Jun-20 13:30N 35°44' W 023°39'814.7
2018-Jun-20 12:58N 35°50' W 023°33'814.6
2018-Jun-20 12:26N 35°56' W 023°27'614.5
2018-Jun-20 12:00N 36°00' W 023°21'714.8
2018-Jun-20 11:31N 36°06' W 023°15'714.9
2018-Jun-20 11:00N 36°12' W 023°09'1314.7
2018-Jun-20 10:07N 36°21' W 022°58'214.4
2018-Jun-20 09:59N 36°23' W 022°57'714.5
2018-Jun-20 09:30N 36°28' W 022°51'714.5
2018-Jun-20 09:00N 36°33' W 022°45'714.5
2018-Jun-20 08:31N 36°39' W 022°39'714.4
2018-Jun-20 08:00N 36°44' W 022°33'714.4
2018-Jun-20 07:29N 36°50' W 022°27'714.4
2018-Jun-20 07:00N 36°55' W 022°21'  
2018-Jun-17 11:48N 48°03' W 006°51'6012.7
2018-Jun-17 07:05N 48°49' W 005°52'211.2
2018-Jun-17 06:54N 48°50' W 005°51'410.8
2018-Jun-17 06:30N 48°54' W 005°47'6 9.9
2018-Jun-17 05:52N 48°57' W 005°39'1910.3
2018-Jun-17 04:02N 49°07' W 005°14'010.8
2018-Jun-17 04:00N 49°07' W 005°14'811.4
2018-Jun-17 03:19N 49°11' W 005°03'412.1
2018-Jun-17 02:58N 49°13' W 004°58'713.3
2018-Jun-17 02:28N 49°16' W 004°48'714.3
2018-Jun-17 02:00N 49°20' W 004°40'814.5
2018-Jun-17 01:29N 49°23' W 004°30'814.7
2018-Jun-17 00:55N 49°27' W 004°19'614.6
2018-Jun-17 00:30N 49°30' W 004°11'714.2
2018-Jun-17 00:00N 49°34' W 004°01'713.8
2018-Jun-16 23:30N 49°37' W 003°52'713.3
2018-Jun-16 23:00N 49°41' W 003°43'612.6
2018-Jun-16 22:29N 49°44' W 003°35'612.0
2018-Jun-16 22:00N 49°47' W 003°27'611.4
2018-Jun-16 21:30N 49°50' W 003°19'611.2
2018-Jun-16 21:00N 49°53' W 003°12'511.0
2018-Jun-16 20:30N 49°55' W 003°04'611.2
2018-Jun-16 20:00N 49°58' W 002°57'611.4
2018-Jun-16 19:30N 50°00' W 002°48'612.0
2018-Jun-16 19:00N 50°02' W 002°39'712.7
2018-Jun-16 18:30N 50°03' W 002°29'6415.8
2018-Jun-16 14:29N 50°20' W 000°54'714.6
2018-Jun-16 14:00N 50°21' W 000°43'1213.9
2018-Jun-16 13:10N 50°24' W 000°25'212.7
2018-Jun-16 13:00N 50°25' W 000°22'2 4.8
2018-Jun-16 12:30N 50°26' W 000°19'2 4.0
2018-Jun-16 12:00N 50°27' W 000°16'611.8
2018-Jun-16 11:29N 50°28' W 000°07'511.2
2018-Jun-16 11:00N 50°30' E 000°01'610.8
2018-Jun-16 10:26N 50°31' E 000°11'510.6
2018-Jun-16 10:00N 50°33' E 000°18'611.1
2018-Jun-16 09:30N 50°34' E 000°26'612.0
2018-Jun-16 09:00N 50°36' E 000°35'612.9
2018-Jun-16 08:30N 50°39' E 000°43'713.9
2018-Jun-16 08:00N 50°43' E 000°52'714.8
2018-Jun-16 07:30N 50°48' E 001°02'815.1
2018-Jun-16 07:00N 50°52' E 001°12'815.3
2018-Jun-16 06:30N 50°57' E 001°21'714.9
2018-Jun-16 06:00N 51°02' E 001°30'612.8
2018-Jun-16 05:31N 51°04' E 001°39'713.5
2018-Jun-16 05:01N 51°02' E 001°49'713.8
2018-Jun-16 04:30N 51°03' E 002°00'713.3
2018-Jun-16 04:00N 51°03' E 002°11'612.0
2018-Jun-16 03:29N 51°04' E 002°21'1 1.4
2018-Jun-16 03:00N 51°03' E 002°20'0 0.4
2018-Jun-16 02:30N 51°03' E 002°20'1 1.3
2018-Jun-16 02:00N 51°03' E 002°19'0 0.0
2018-Jun-16 00:54N 51°03' E 002°19'0 0.0
2018-Jun-16 00:21N 51°03' E 002°19'0 0.0
2018-Jun-16 00:00N 51°03' E 002°19'0 0.0
2018-Jun-15 23:09N 51°03' E 002°19'0 0.0
2018-Jun-15 22:57N 51°03' E 002°19'0 0.0
2018-Jun-15 22:30N 51°03' E 002°19'0 0.0
2018-Jun-15 22:00N 51°03' E 002°19'0 0.0
2018-Jun-15 21:30N 51°03' E 002°19'0 0.0
2018-Jun-15 21:00N 51°03' E 002°19'0 0.0
2018-Jun-15 20:30N 51°03' E 002°19'0 0.0
2018-Jun-15 20:00N 51°03' E 002°19'0 0.0
2018-Jun-15 19:30N 51°03' E 002°19'0 0.0
2018-Jun-15 19:00N 51°03' E 002°19'0 0.0
2018-Jun-15 18:30N 51°03' E 002°19'0 0.0
2018-Jun-15 18:00N 51°03' E 002°19'0 0.0
2018-Jun-15 17:30N 51°03' E 002°19'0 0.0
2018-Jun-15 17:00N 51°03' E 002°19'0 0.0
2018-Jun-15 16:30N 51°03' E 002°19'0 0.0
2018-Jun-15 16:00N 51°03' E 002°19'0 0.0
2018-Jun-15 15:30N 51°03' E 002°19'0 0.0
2018-Jun-15 15:00N 51°03' E 002°19'0 0.0
2018-Jun-15 14:30N 51°03' E 002°19'0 0.0
2018-Jun-15 14:00N 51°03' E 002°19'0 0.0
2018-Jun-15 13:30N 51°03' E 002°19'0 0.0
2018-Jun-15 13:00N 51°03' E 002°19'0 0.0
2018-Jun-15 12:30N 51°03' E 002°19'0 0.0
2018-Jun-15 12:00N 51°03' E 002°19'0 0.0
2018-Jun-15 11:30N 51°03' E 002°19'0 0.2
2018-Jun-15 11:00N 51°03' E 002°19'0 0.0
2018-Jun-15 10:30N 51°03' E 002°19'0 0.0
2018-Jun-15 10:00N 51°03' E 002°19'0 0.0
2018-Jun-15 09:30N 51°03' E 002°19'0 0.0
2018-Jun-15 09:00N 51°03' E 002°19'0 0.0
2018-Jun-15 08:30N 51°03' E 002°19'0 0.0
2018-Jun-15 08:00N 51°03' E 002°19'0 0.0
2018-Jun-15 07:30N 51°03' E 002°19'0 0.0
2018-Jun-15 07:00N 51°03' E 002°19'0 0.0
2018-Jun-15 06:30N 51°03' E 002°19'0 0.0
2018-Jun-15 06:00N 51°03' E 002°19'0 0.0
2018-Jun-15 05:30N 51°03' E 002°19'0 0.0
2018-Jun-15 05:00N 51°03' E 002°19'0 0.0
2018-Jun-15 04:30N 51°03' E 002°19'0 0.0
2018-Jun-15 04:00N 51°03' E 002°19'0 0.0
2018-Jun-15 03:30N 51°03' E 002°19'0 0.0
2018-Jun-15 03:00N 51°03' E 002°19'0 0.0
2018-Jun-15 02:30N 51°03' E 002°19'0 0.0
2018-Jun-15 02:00N 51°03' E 002°19'0 0.0
2018-Jun-15 01:30N 51°03' E 002°19'0 0.0
2018-Jun-15 01:00N 51°03' E 002°19'0 0.0
2018-Jun-15 00:30N 51°03' E 002°19'0 0.0
2018-Jun-15 00:00N 51°03' E 002°19'0 0.0
2018-Jun-14 23:30N 51°03' E 002°19'0 0.0
2018-Jun-14 23:00N 51°03' E 002°19'0 0.0
2018-Jun-14 22:30N 51°03' E 002°19'0 0.0
2018-Jun-14 21:57N 51°03' E 002°19'0 0.0
2018-Jun-14 21:30N 51°03' E 002°19'0 0.0
2018-Jun-14 20:54N 51°03' E 002°19'0 0.0
2018-Jun-14 20:27N 51°03' E 002°19'0 0.0
2018-Jun-14 20:00N 51°03' E 002°19'0 0.0
2018-Jun-14 19:30N 51°03' E 002°19'0 0.0
2018-Jun-14 19:00N 51°03' E 002°19'0 0.0
2018-Jun-14 18:27N 51°03' E 002°19'0 0.0
2018-Jun-14 18:00N 51°03' E 002°19'0 0.0
2018-Jun-14 17:30N 51°03' E 002°19'0 0.0
2018-Jun-14 16:57N 51°03' E 002°19'0 0.0
2018-Jun-14 16:24N 51°03' E 002°19'0 0.0
2018-Jun-14 16:00N 51°03' E 002°19'0 0.0
2018-Jun-14 15:27N 51°03' E 002°19'0 0.0
2018-Jun-14 15:00N 51°03' E 002°19'0 0.0
2018-Jun-14 14:30N 51°03' E 002°19'0 0.0
2018-Jun-14 12:36N 51°03' E 002°19'0 0.0
2018-Jun-14 12:27N 51°03' E 002°19'0 0.0
2018-Jun-14 10:54N 51°03' E 002°19'0 0.0
2018-Jun-14 10:30N 51°03' E 002°19'0 0.0
2018-Jun-14 10:00N 51°03' E 002°19'0 0.0
2018-Jun-14 09:30N 51°03' E 002°19'0 0.0
2018-Jun-14 09:00N 51°03' E 002°19'0 0.0
2018-Jun-14 08:30N 51°03' E 002°19'0 0.0
2018-Jun-14 08:00N 51°03' E 002°19'0 0.0
2018-Jun-14 07:30N 51°03' E 002°19'0 0.0
2018-Jun-14 06:48N 51°03' E 002°19'0 0.0
2018-Jun-14 06:30N 51°03' E 002°19'0 0.0
2018-Jun-14 06:00N 51°03' E 002°19'0 0.0
2018-Jun-14 05:30N 51°03' E 002°19'0 0.0
2018-Jun-14 05:00N 51°03' E 002°19'0 0.0
2018-Jun-14 04:30N 51°03' E 002°19'0 0.0
2018-Jun-14 04:00N 51°03' E 002°19'0 0.0
2018-Jun-14 03:30N 51°03' E 002°19'0 0.0
2018-Jun-14 03:00N 51°03' E 002°19'0 0.0
2018-Jun-14 02:30N 51°03' E 002°19'0 0.0
2018-Jun-14 02:00N 51°03' E 002°19'0 0.0
2018-Jun-14 01:30N 51°03' E 002°19'0 0.0
2018-Jun-14 01:00N 51°03' E 002°19'0 0.0
2018-Jun-14 00:30N 51°03' E 002°19'0 0.0
2018-Jun-14 00:00N 51°03' E 002°19'0 0.0
2018-Jun-13 23:30N 51°03' E 002°19'0 0.0
2018-Jun-13 23:00N 51°03' E 002°19'0 0.0
2018-Jun-13 22:30N 51°03' E 002°19'0 0.0
2018-Jun-13 22:00N 51°03' E 002°19'0 0.0
2018-Jun-13 21:30N 51°03' E 002°19'0 0.0
2018-Jun-13 21:00N 51°03' E 002°19'0 0.0
2018-Jun-13 20:30N 51°03' E 002°19'0 0.0
2018-Jun-13 20:00N 51°03' E 002°19'0 0.0
2018-Jun-13 19:30N 51°03' E 002°19'0 0.0
2018-Jun-13 19:00N 51°03' E 002°19'0 0.0
2018-Jun-13 18:30N 51°03' E 002°19'0 0.0
2018-Jun-13 18:00N 51°03' E 002°19'0 0.0
2018-Jun-13 17:30N 51°03' E 002°19'0 0.0
2018-Jun-13 16:57N 51°03' E 002°19'0 0.0
2018-Jun-13 16:30N 51°03' E 002°19'0 0.0
2018-Jun-13 16:00N 51°03' E 002°19'0 0.0
2018-Jun-13 15:30N 51°03' E 002°19'0 0.0
2018-Jun-13 15:00N 51°03' E 002°19'0 0.0
2018-Jun-13 14:30N 51°03' E 002°19'0 0.0
2018-Jun-13 14:00N 51°03' E 002°19'0 0.0
2018-Jun-13 13:30N 51°03' E 002°19'0 0.0
2018-Jun-13 13:00N 51°03' E 002°19'0 0.0
2018-Jun-13 12:30N 51°03' E 002°19'0 0.0
2018-Jun-13 12:00N 51°03' E 002°19'0 0.0
2018-Jun-13 11:30N 51°03' E 002°19'0 0.0
2018-Jun-13 11:00N 51°03' E 002°19'0 0.0
2018-Jun-13 10:30N 51°03' E 002°19'0 0.0
2018-Jun-13 10:00N 51°03' E 002°19'0 0.0
2018-Jun-13 09:30N 51°03' E 002°19'0 0.0
2018-Jun-13 08:54N 51°03' E 002°19'0 0.0
2018-Jun-13 08:30N 51°03' E 002°19'0 0.0
2018-Jun-13 08:00N 51°03' E 002°19'0 0.0
2018-Jun-13 07:30N 51°03' E 002°19'0 0.0
2018-Jun-13 07:00N 51°03' E 002°19'0 0.0
2018-Jun-13 06:27N 51°03' E 002°19'0 0.0
2018-Jun-13 06:00N 51°03' E 002°19'0 0.0
2018-Jun-13 05:30N 51°03' E 002°19'0 0.0
2018-Jun-13 04:54N 51°03' E 002°19'0 0.0
2018-Jun-13 04:24N 51°03' E 002°19'0 0.0
2018-Jun-13 04:00N 51°03' E 002°19'0 0.0
2018-Jun-13 03:18N 51°03' E 002°19'0 0.0
2018-Jun-13 03:00N 51°03' E 002°19'0 0.0
2018-Jun-13 02:06N 51°03' E 002°19'0 0.0
2018-Jun-13 01:54N 51°03' E 002°19'0 0.0
2018-Jun-13 01:30N 51°03' E 002°19'0 0.0
2018-Jun-13 00:54N 51°03' E 002°19'0 0.0
2018-Jun-13 00:30N 51°03' E 002°19'0 0.0
2018-Jun-13 00:00N 51°03' E 002°19'0 0.0
2018-Jun-12 23:30N 51°03' E 002°19'0 0.0
2018-Jun-12 22:33N 51°03' E 002°19'0 0.0
2018-Jun-12 22:09N 51°03' E 002°19'0 0.0
2018-Jun-12 22:00N 51°03' E 002°19'0 0.0
2018-Jun-12 20:48N 51°03' E 002°19'0 0.0
2018-Jun-12 20:21N 51°03' E 002°19'0 0.0
2018-Jun-12 19:39N 51°03' E 002°19'0 0.0
2018-Jun-12 19:24N 51°03' E 002°19'0 0.0
2018-Jun-12 18:48N 51°03' E 002°19'0 0.0
2018-Jun-12 18:30N 51°03' E 002°19'0 0.0
2018-Jun-12 17:54N 51°03' E 002°19'0 0.0
2018-Jun-12 17:24N 51°03' E 002°19'0 0.0
2018-Jun-12 16:27N 51°03' E 002°19'0 0.0
2018-Jun-12 14:45N 51°03' E 002°19'0 0.0
2018-Jun-12 14:15N 51°03' E 002°19'0 0.0
2018-Jun-12 13:48N 51°03' E 002°19'0 0.0
2018-Jun-12 10:27N 51°03' E 002°19'0 0.0
2018-Jun-12 10:00N 51°03' E 002°19'0 0.0
2018-Jun-12 09:27N 51°03' E 002°19'0 0.0
2018-Jun-12 08:57N 51°03' E 002°19'0 0.0
2018-Jun-12 08:27N 51°03' E 002°19'0 0.0
2018-Jun-12 08:00N 51°03' E 002°19'0 0.0
2018-Jun-12 07:30N 51°03' E 002°19'0 0.0
2018-Jun-12 07:00N 51°03' E 002°19'0 0.0
2018-Jun-12 06:30N 51°03' E 002°19'0 0.0
2018-Jun-12 06:00N 51°03' E 002°19'0 0.0
2018-Jun-12 05:15N 51°03' E 002°19'0 0.0
2018-Jun-12 05:00N 51°03' E 002°19'0 0.0
2018-Jun-12 04:30N 51°03' E 002°19'0 0.0
2018-Jun-12 04:00N 51°03' E 002°19'0 0.0
2018-Jun-12 03:21N 51°03' E 002°19'0 0.0
2018-Jun-12 03:00N 51°03' E 002°19'0 0.0
2018-Jun-12 02:30N 51°03' E 002°19'0 0.0
2018-Jun-12 02:00N 51°03' E 002°19'0 0.0
2018-Jun-12 01:30N 51°03' E 002°19'0 0.0
2018-Jun-12 00:51N 51°03' E 002°19'0 0.0
2018-Jun-12 00:27N 51°03' E 002°19'0 0.0
2018-Jun-12 00:00N 51°03' E 002°19'0 0.0
2018-Jun-11 23:30N 51°03' E 002°19'0 0.0
2018-Jun-11 23:00N 51°03' E 002°19'0 0.0
2018-Jun-11 22:30N 51°03' E 002°19'0 0.0
2018-Jun-11 22:00N 51°03' E 002°19'0 0.0
2018-Jun-11 21:27N 51°03' E 002°19'0 0.0
2018-Jun-11 21:00N 51°03' E 002°19'0 0.0
2018-Jun-11 20:30N 51°03' E 002°19'0 0.0
2018-Jun-11 20:00N 51°03' E 002°19'0 0.0
2018-Jun-11 19:30N 51°03' E 002°19'0 0.0
2018-Jun-11 19:00N 51°03' E 002°19'0 0.0
2018-Jun-11 18:30N 51°03' E 002°19'0 0.0
2018-Jun-11 18:00N 51°03' E 002°19'0 0.0
2018-Jun-11 17:30N 51°03' E 002°19'0 0.0
2018-Jun-11 17:00N 51°03' E 002°19'0 0.0
2018-Jun-11 16:30N 51°03' E 002°19'0 0.0
2018-Jun-11 15:57N 51°03' E 002°19'0 0.0
2018-Jun-11 15:30N 51°03' E 002°19'0 0.0
2018-Jun-11 15:00N 51°03' E 002°19'0 0.0
2018-Jun-11 14:30N 51°03' E 002°19'0 0.0
2018-Jun-11 14:00N 51°03' E 002°19'0 0.0
2018-Jun-11 13:30N 51°03' E 002°19'0 0.0
2018-Jun-11 13:00N 51°03' E 002°19'0 0.0
2018-Jun-11 12:27N 51°03' E 002°19'0 0.0
2018-Jun-11 12:00N 51°03' E 002°19'0 0.0
2018-Jun-11 11:30N 51°03' E 002°19'0 0.0
2018-Jun-11 11:00N 51°03' E 002°19'0 0.0
2018-Jun-11 10:21N 51°03' E 002°19'0 0.0
2018-Jun-11 10:00N 51°03' E 002°19'0 0.0
2018-Jun-11 09:30N 51°03' E 002°19'0 0.0
2018-Jun-11 09:00N 51°03' E 002°19'0 0.0
2018-Jun-11 08:30N 51°03' E 002°19'0 0.0
2018-Jun-11 08:00N 51°03' E 002°19'0 0.8
2018-Jun-11 07:30N 51°03' E 002°20'0 0.9
2018-Jun-11 07:00N 51°03' E 002°21'0 0.5
2018-Jun-11 06:29N 51°03' E 002°21'1 2.6
2018-Jun-11 06:00N 51°04' E 002°19'3 5.7
2018-Jun-11 05:30N 51°04' E 002°15'2 4.1
2018-Jun-11 04:59N 51°03' E 002°11'2 3.1
2018-Jun-11 04:30N 51°03' E 002°09'2 4.3
2018-Jun-11 04:00N 51°01' E 002°11'0 0.2
2018-Jun-11 03:27N 51°01' E 002°11'0 0.0
2018-Jun-11 02:27N 51°01' E 002°11'0 0.0
2018-Jun-11 01:51N 51°01' E 002°11'0 0.0
2018-Jun-11 00:12N 51°01' E 002°11'0 0.0
2018-Jun-10 22:45N 51°01' E 002°11'  

Dump ship's entire track history